sensor_id;sensor_type;location;lat;lon;timestamp;pressure;altitude;pressure_sealevel;temperature;humidity
74960;BME280;63518;49.572;1.106;2023-04-22T00:02:15;98737.16;;;6.94;72.76
74960;BME280;63518;49.572;1.106;2023-04-22T00:04:43;98737.88;;;7.14;72.22
74960;BME280;63518;49.572;1.106;2023-04-22T00:07:13;98736.41;;;6.78;74.01
74960;BME280;63518;49.572;1.106;2023-04-22T00:09:41;98717.63;;;6.61;73.98
74960;BME280;63518;49.572;1.106;2023-04-22T00:12:08;98721.81;;;6.43;75.90
74960;BME280;63518;49.572;1.106;2023-04-22T00:14:37;98728.84;;;6.59;74.79
74960;BME280;63518;49.572;1.106;2023-04-22T00:17:04;98714.91;;;6.56;74.16
74960;BME280;63518;49.572;1.106;2023-04-22T00:19:33;98732.41;;;6.60;74.33
74960;BME280;63518;49.572;1.106;2023-04-22T00:22:00;98732.09;;;6.67;74.04
74960;BME280;63518;49.572;1.106;2023-04-22T00:24:28;98724.19;;;6.65;73.95
74960;BME280;63518;49.572;1.106;2023-04-22T00:26:54;98732.47;;;6.50;74.75
74960;BME280;63518;49.572;1.106;2023-04-22T00:29:21;98718.34;;;6.77;73.70
74960;BME280;63518;49.572;1.106;2023-04-22T00:31:48;98710.41;;;6.80;73.17
74960;BME280;63518;49.572;1.106;2023-04-22T00:34:15;98712.44;;;6.54;74.03
74960;BME280;63518;49.572;1.106;2023-04-22T00:36:45;98714.63;;;6.57;74.04
74960;BME280;63518;49.572;1.106;2023-04-22T00:39:12;98707.91;;;6.34;74.91
74960;BME280;63518;49.572;1.106;2023-04-22T00:41:39;98704.88;;;6.41;74.98
74960;BME280;63518;49.572;1.106;2023-04-22T00:44:10;98688.16;;;6.43;75.12
74960;BME280;63518;49.572;1.106;2023-04-22T00:46:38;98685.50;;;6.77;74.13
74960;BME280;63518;49.572;1.106;2023-04-22T00:49:06;98679.56;;;6.65;74.27
74960;BME280;63518;49.572;1.106;2023-04-22T00:51:33;98665.69;;;6.46;74.80
74960;BME280;63518;49.572;1.106;2023-04-22T00:54:00;98675.28;;;6.43;74.37
74960;BME280;63518;49.572;1.106;2023-04-22T00:56:28;98677.13;;;6.58;74.03
74960;BME280;63518;49.572;1.106;2023-04-22T00:58:55;98666.84;;;6.34;74.11
74960;BME280;63518;49.572;1.106;2023-04-22T01:01:23;98673.44;;;6.23;75.36
74960;BME280;63518;49.572;1.106;2023-04-22T01:03:50;98666.91;;;6.19;75.94
74960;BME280;63518;49.572;1.106;2023-04-22T01:06:19;98674.28;;;6.24;76.33
74960;BME280;63518;49.572;1.106;2023-04-22T01:08:46;98664.66;;;6.31;75.02
74960;BME280;63518;49.572;1.106;2023-04-22T01:11:13;98663.31;;;6.29;75.05
74960;BME280;63518;49.572;1.106;2023-04-22T01:13:40;98657.31;;;6.22;75.46
74960;BME280;63518;49.572;1.106;2023-04-22T01:16:07;98642.13;;;6.00;75.87
74960;BME280;63518;49.572;1.106;2023-04-22T01:18:35;98671.53;;;6.24;75.68
74960;BME280;63518;49.572;1.106;2023-04-22T01:21:02;98671.75;;;6.38;74.53
74960;BME280;63518;49.572;1.106;2023-04-22T01:23:29;98673.38;;;6.44;74.69
74960;BME280;63518;49.572;1.106;2023-04-22T01:25:56;98651.47;;;6.44;74.72
74960;BME280;63518;49.572;1.106;2023-04-22T01:28:23;98646.50;;;6.51;74.63
74960;BME280;63518;49.572;1.106;2023-04-22T01:30:51;98643.16;;;6.59;74.32
74960;BME280;63518;49.572;1.106;2023-04-22T01:33:18;98631.28;;;6.34;74.07
74960;BME280;63518;49.572;1.106;2023-04-22T01:35:45;98642.34;;;6.58;74.53
74960;BME280;63518;49.572;1.106;2023-04-22T01:38:12;98627.84;;;6.58;74.13
74960;BME280;63518;49.572;1.106;2023-04-22T01:40:39;98621.00;;;6.55;73.29
74960;BME280;63518;49.572;1.106;2023-04-22T01:43:06;98629.94;;;6.71;73.83
74960;BME280;63518;49.572;1.106;2023-04-22T01:45:33;98616.91;;;6.53;73.50
74960;BME280;63518;49.572;1.106;2023-04-22T01:48:00;98625.00;;;6.73;72.92
74960;BME280;63518;49.572;1.106;2023-04-22T01:50:27;98617.22;;;6.51;74.68
74960;BME280;63518;49.572;1.106;2023-04-22T01:52:54;98610.44;;;6.39;75.62
74960;BME280;63518;49.572;1.106;2023-04-22T01:55:22;98594.16;;;6.18;75.42
74960;BME280;63518;49.572;1.106;2023-04-22T01:57:48;98598.00;;;6.17;75.80
74960;BME280;63518;49.572;1.106;2023-04-22T02:00:15;98590.63;;;6.07;76.98
74960;BME280;63518;49.572;1.106;2023-04-22T02:02:42;98584.47;;;6.31;76.63
74960;BME280;63518;49.572;1.106;2023-04-22T02:05:09;98570.16;;;6.05;76.71
74960;BME280;63518;49.572;1.106;2023-04-22T02:07:36;98579.69;;;6.13;77.58
74960;BME280;63518;49.572;1.106;2023-04-22T02:10:04;98587.72;;;6.43;75.43
74960;BME280;63518;49.572;1.106;2023-04-22T02:12:31;98562.34;;;6.32;75.30
74960;BME280;63518;49.572;1.106;2023-04-22T02:14:58;98579.91;;;6.60;74.52
74960;BME280;63518;49.572;1.106;2023-04-22T02:17:25;98584.34;;;6.56;74.26
74960;BME280;63518;49.572;1.106;2023-04-22T02:19:52;98581.22;;;6.68;73.73
74960;BME280;63518;49.572;1.106;2023-04-22T02:22:20;98584.03;;;6.58;74.47
74960;BME280;63518;49.572;1.106;2023-04-22T02:24:47;98595.72;;;6.69;73.23
74960;BME280;63518;49.572;1.106;2023-04-22T02:27:14;98590.94;;;6.89;72.56
74960;BME280;63518;49.572;1.106;2023-04-22T02:29:41;98594.34;;;6.71;72.91
74960;BME280;63518;49.572;1.106;2023-04-22T02:32:08;98583.66;;;6.70;72.91
74960;BME280;63518;49.572;1.106;2023-04-22T02:34:34;98591.78;;;6.46;73.73
74960;BME280;63518;49.572;1.106;2023-04-22T02:37:02;98582.91;;;6.20;75.54
74960;BME280;63518;49.572;1.106;2023-04-22T02:39:28;98599.34;;;6.15;76.27
74960;BME280;63518;49.572;1.106;2023-04-22T02:41:55;98572.19;;;6.28;74.16
74960;BME280;63518;49.572;1.106;2023-04-22T02:44:22;98593.56;;;6.66;72.36
74960;BME280;63518;49.572;1.106;2023-04-22T02:46:49;98585.38;;;6.60;72.31
74960;BME280;63518;49.572;1.106;2023-04-22T02:49:16;98601.13;;;6.40;72.78
74960;BME280;63518;49.572;1.106;2023-04-22T02:51:43;98600.50;;;6.53;73.11
74960;BME280;63518;49.572;1.106;2023-04-22T02:54:09;98604.81;;;6.64;72.84
74960;BME280;63518;49.572;1.106;2023-04-22T02:56:36;98603.56;;;6.85;72.64
74960;BME280;63518;49.572;1.106;2023-04-22T02:59:03;98609.44;;;6.63;73.68
74960;BME280;63518;49.572;1.106;2023-04-22T03:01:30;98607.56;;;6.64;72.93
74960;BME280;63518;49.572;1.106;2023-04-22T03:03:57;98598.72;;;6.33;73.83
74960;BME280;63518;49.572;1.106;2023-04-22T03:06:25;98593.31;;;6.62;73.11
74960;BME280;63518;49.572;1.106;2023-04-22T03:08:52;98584.19;;;6.38;74.06
74960;BME280;63518;49.572;1.106;2023-04-22T03:11:19;98601.22;;;6.63;72.92
74960;BME280;63518;49.572;1.106;2023-04-22T03:13:46;98579.38;;;6.58;74.10
74960;BME280;63518;49.572;1.106;2023-04-22T03:16:13;98567.47;;;6.39;74.75
74960;BME280;63518;49.572;1.106;2023-04-22T03:18:39;98579.22;;;6.40;74.91
74960;BME280;63518;49.572;1.106;2023-04-22T03:21:06;98574.25;;;6.47;75.95
74960;BME280;63518;49.572;1.106;2023-04-22T03:23:33;98574.03;;;6.43;75.73
74960;BME280;63518;49.572;1.106;2023-04-22T03:26:01;98564.88;;;6.58;74.90
74960;BME280;63518;49.572;1.106;2023-04-22T03:28:27;98551.91;;;6.69;72.82
74960;BME280;63518;49.572;1.106;2023-04-22T03:30:54;98567.34;;;6.54;73.48
74960;BME280;63518;49.572;1.106;2023-04-22T03:33:21;98563.16;;;6.33;74.73
74960;BME280;63518;49.572;1.106;2023-04-22T03:35:48;98579.09;;;6.99;72.42
74960;BME280;63518;49.572;1.106;2023-04-22T03:38:15;98577.59;;;7.12;71.09
74960;BME280;63518;49.572;1.106;2023-04-22T03:40:42;98574.91;;;7.07;71.18
74960;BME280;63518;49.572;1.106;2023-04-22T03:43:09;98572.31;;;6.92;70.15
74960;BME280;63518;49.572;1.106;2023-04-22T03:45:35;98583.16;;;7.02;71.43
74960;BME280;63518;49.572;1.106;2023-04-22T03:48:02;98550.03;;;7.03;70.32
74960;BME280;63518;49.572;1.106;2023-04-22T03:50:29;98544.97;;;6.81;73.71
74960;BME280;63518;49.572;1.106;2023-04-22T03:52:56;98546.97;;;6.71;71.99
74960;BME280;63518;49.572;1.106;2023-04-22T03:55:23;98533.66;;;6.59;72.28
74960;BME280;63518;49.572;1.106;2023-04-22T03:57:50;98541.22;;;6.72;72.54
74960;BME280;63518;49.572;1.106;2023-04-22T04:00:16;98535.94;;;6.81;72.00
74960;BME280;63518;49.572;1.106;2023-04-22T04:02:43;98534.31;;;6.46;73.20
74960;BME280;63518;49.572;1.106;2023-04-22T04:05:10;98533.84;;;6.73;73.81
74960;BME280;63518;49.572;1.106;2023-04-22T04:07:37;98539.09;;;6.98;72.03
74960;BME280;63518;49.572;1.106;2023-04-22T04:10:04;98542.81;;;7.12;72.02
74960;BME280;63518;49.572;1.106;2023-04-22T04:12:31;98528.88;;;6.75;73.82
74960;BME280;63518;49.572;1.106;2023-04-22T04:14:58;98512.28;;;6.61;71.96
74960;BME280;63518;49.572;1.106;2023-04-22T04:17:25;98521.47;;;6.75;72.43
74960;BME280;63518;49.572;1.106;2023-04-22T04:19:52;98525.84;;;6.76;73.60
74960;BME280;63518;49.572;1.106;2023-04-22T04:22:19;98504.38;;;6.59;73.57
74960;BME280;63518;49.572;1.106;2023-04-22T04:24:46;98501.97;;;6.82;73.75
74960;BME280;63518;49.572;1.106;2023-04-22T04:27:13;98509.00;;;6.64;74.28
74960;BME280;63518;49.572;1.106;2023-04-22T04:29:39;98506.34;;;6.83;74.20
74960;BME280;63518;49.572;1.106;2023-04-22T04:32:07;98501.41;;;7.14;73.81
74960;BME280;63518;49.572;1.106;2023-04-22T04:34:35;98498.34;;;6.92;74.28
74960;BME280;63518;49.572;1.106;2023-04-22T04:37:04;98484.69;;;6.86;74.04
74960;BME280;63518;49.572;1.106;2023-04-22T04:39:32;98472.06;;;6.91;73.01
74960;BME280;63518;49.572;1.106;2023-04-22T04:41:59;98474.16;;;6.70;74.16
74960;BME280;63518;49.572;1.106;2023-04-22T04:44:25;98464.34;;;6.63;75.70
74960;BME280;63518;49.572;1.106;2023-04-22T04:46:52;98465.75;;;6.61;75.13
74960;BME280;63518;49.572;1.106;2023-04-22T04:49:23;98474.25;;;6.59;76.19
74960;BME280;63518;49.572;1.106;2023-04-22T04:51:49;98473.75;;;6.86;74.41
74960;BME280;63518;49.572;1.106;2023-04-22T04:54:16;98470.09;;;7.20;72.60
74960;BME280;63518;49.572;1.106;2023-04-22T04:56:43;98482.69;;;7.21;71.40
74960;BME280;63518;49.572;1.106;2023-04-22T04:59:10;98483.25;;;7.42;70.57
74960;BME280;63518;49.572;1.106;2023-04-22T05:01:37;98489.50;;;7.24;71.16
74960;BME280;63518;49.572;1.106;2023-04-22T05:04:04;98494.41;;;7.51;70.65
74960;BME280;63518;49.572;1.106;2023-04-22T05:06:31;98480.97;;;7.49;69.30
74960;BME280;63518;49.572;1.106;2023-04-22T05:09:00;98473.38;;;7.65;70.52
74960;BME280;63518;49.572;1.106;2023-04-22T05:11:27;98492.41;;;7.32;71.28
74960;BME280;63518;49.572;1.106;2023-04-22T05:13:53;98472.94;;;7.10;70.07
74960;BME280;63518;49.572;1.106;2023-04-22T05:16:20;98488.22;;;7.40;70.42
74960;BME280;63518;49.572;1.106;2023-04-22T05:18:47;98488.09;;;7.26;69.70
74960;BME280;63518;49.572;1.106;2023-04-22T05:21:14;98467.00;;;6.74;73.74
74960;BME280;63518;49.572;1.106;2023-04-22T05:23:42;98467.75;;;6.79;72.58
74960;BME280;63518;49.572;1.106;2023-04-22T05:26:09;98473.09;;;6.95;73.80
74960;BME280;63518;49.572;1.106;2023-04-22T05:28:35;98471.66;;;6.73;73.13
74960;BME280;63518;49.572;1.106;2023-04-22T05:31:02;98478.06;;;7.40;72.17
74960;BME280;63518;49.572;1.106;2023-04-22T05:33:29;98501.41;;;7.14;71.52
74960;BME280;63518;49.572;1.106;2023-04-22T05:35:55;98489.16;;;6.48;75.22
74960;BME280;63518;49.572;1.106;2023-04-22T05:38:22;98510.72;;;6.89;74.10
74960;BME280;63518;49.572;1.106;2023-04-22T05:40:49;98532.03;;;6.58;76.25
74960;BME280;63518;49.572;1.106;2023-04-22T05:43:16;98529.56;;;7.20;74.30
74960;BME280;63518;49.572;1.106;2023-04-22T05:45:42;98514.78;;;6.92;75.92
74960;BME280;63518;49.572;1.106;2023-04-22T05:48:09;98521.56;;;6.99;74.11
74960;BME280;63518;49.572;1.106;2023-04-22T05:50:36;98504.63;;;7.21;74.10
74960;BME280;63518;49.572;1.106;2023-04-22T05:53:03;98522.56;;;7.08;73.44
74960;BME280;63518;49.572;1.106;2023-04-22T05:55:29;98519.78;;;7.13;73.84
74960;BME280;63518;49.572;1.106;2023-04-22T05:57:56;98539.34;;;7.26;74.63
74960;BME280;63518;49.572;1.106;2023-04-22T06:00:23;98543.13;;;7.06;76.39
74960;BME280;63518;49.572;1.106;2023-04-22T06:02:50;98538.41;;;6.82;76.30
74960;BME280;63518;49.572;1.106;2023-04-22T06:05:17;98539.28;;;7.07;74.97
74960;BME280;63518;49.572;1.106;2023-04-22T06:07:44;98545.88;;;7.35;76.96
74960;BME280;63518;49.572;1.106;2023-04-22T06:10:11;98535.72;;;7.06;76.48
74960;BME280;63518;49.572;1.106;2023-04-22T06:12:37;98544.84;;;7.50;72.80
74960;BME280;63518;49.572;1.106;2023-04-22T06:15:05;98550.88;;;7.52;74.41
74960;BME280;63518;49.572;1.106;2023-04-22T06:17:31;98550.06;;;7.27;76.53
74960;BME280;63518;49.572;1.106;2023-04-22T06:19:58;98558.09;;;6.89;73.68
74960;BME280;63518;49.572;1.106;2023-04-22T06:22:25;98555.06;;;7.68;73.50
74960;BME280;63518;49.572;1.106;2023-04-22T06:24:52;98543.22;;;7.49;75.73
74960;BME280;63518;49.572;1.106;2023-04-22T06:27:19;98554.00;;;7.64;73.62
74960;BME280;63518;49.572;1.106;2023-04-22T06:29:45;98548.66;;;7.30;73.51
74960;BME280;63518;49.572;1.106;2023-04-22T06:32:12;98560.72;;;7.29;77.14
74960;BME280;63518;49.572;1.106;2023-04-22T06:34:39;98550.06;;;7.27;76.48
74960;BME280;63518;49.572;1.106;2023-04-22T06:37:05;98547.53;;;7.31;76.66
74960;BME280;63518;49.572;1.106;2023-04-22T06:39:32;98551.38;;;7.30;76.44
74960;BME280;63518;49.572;1.106;2023-04-22T06:41:59;98540.22;;;6.97;77.66
74960;BME280;63518;49.572;1.106;2023-04-22T06:44:27;98545.75;;;7.16;76.91
74960;BME280;63518;49.572;1.106;2023-04-22T06:46:54;98546.03;;;7.20;77.62
74960;BME280;63518;49.572;1.106;2023-04-22T06:49:23;98548.06;;;7.57;76.30
74960;BME280;63518;49.572;1.106;2023-04-22T06:51:50;98552.72;;;7.80;73.87
74960;BME280;63518;49.572;1.106;2023-04-22T06:54:17;98536.97;;;7.67;74.00
74960;BME280;63518;49.572;1.106;2023-04-22T06:56:43;98544.78;;;7.97;74.05
74960;BME280;63518;49.572;1.106;2023-04-22T06:59:10;98552.06;;;7.88;76.35
74960;BME280;63518;49.572;1.106;2023-04-22T07:01:37;98557.84;;;7.63;75.27
74960;BME280;63518;49.572;1.106;2023-04-22T07:04:04;98542.66;;;7.94;73.65
74960;BME280;63518;49.572;1.106;2023-04-22T07:06:51;98549.19;;;7.98;74.04
74960;BME280;63518;49.572;1.106;2023-04-22T07:09:27;98543.00;;;7.88;76.98
74960;BME280;63518;49.572;1.106;2023-04-22T07:11:56;98541.16;;;7.83;78.32
74960;BME280;63518;49.572;1.106;2023-04-22T07:14:24;98527.81;;;7.95;77.18
74960;BME280;63518;49.572;1.106;2023-04-22T07:17:03;98508.47;;;8.24;76.09
74960;BME280;63518;49.572;1.106;2023-04-22T07:19:31;98527.34;;;8.82;75.30
74960;BME280;63518;49.572;1.106;2023-04-22T07:22:10;98517.47;;;8.81;72.80
74960;BME280;63518;49.572;1.106;2023-04-22T07:24:46;98513.03;;;8.99;70.73
74960;BME280;63518;49.572;1.106;2023-04-22T07:27:18;98504.63;;;9.37;71.17
74960;BME280;63518;49.572;1.106;2023-04-22T07:29:52;98507.06;;;9.66;73.14
74960;BME280;63518;49.572;1.106;2023-04-22T07:32:23;98521.50;;;9.85;72.29
74960;BME280;63518;49.572;1.106;2023-04-22T07:34:53;98510.22;;;9.32;72.33
74960;BME280;63518;49.572;1.106;2023-04-22T07:37:24;98512.44;;;9.16;71.94
74960;BME280;63518;49.572;1.106;2023-04-22T07:39:55;98512.00;;;8.95;71.63
74960;BME280;63518;49.572;1.106;2023-04-22T07:42:27;98500.63;;;9.16;71.30
74960;BME280;63518;49.572;1.106;2023-04-22T07:44:57;98490.88;;;9.09;72.52
74960;BME280;63518;49.572;1.106;2023-04-22T07:47:26;98505.84;;;9.31;71.46
74960;BME280;63518;49.572;1.106;2023-04-22T07:49:54;98493.72;;;9.18;72.54
74960;BME280;63518;49.572;1.106;2023-04-22T07:52:22;98503.78;;;9.23;71.90
74960;BME280;63518;49.572;1.106;2023-04-22T07:54:50;98497.34;;;8.86;72.11
74960;BME280;63518;49.572;1.106;2023-04-22T07:57:23;98518.28;;;8.82;74.87
74960;BME280;63518;49.572;1.106;2023-04-22T07:59:52;98505.84;;;8.84;73.47
74960;BME280;63518;49.572;1.106;2023-04-22T08:02:23;98510.69;;;8.93;73.35
74960;BME280;63518;49.572;1.106;2023-04-22T08:04:50;98513.59;;;8.82;74.83
74960;BME280;63518;49.572;1.106;2023-04-22T08:07:17;98507.06;;;9.11;73.53
74960;BME280;63518;49.572;1.106;2023-04-22T08:09:58;98484.66;;;9.18;73.97
74960;BME280;63518;49.572;1.106;2023-04-22T08:12:25;98508.50;;;9.50;71.11
74960;BME280;63518;49.572;1.106;2023-04-22T08:14:52;98485.28;;;9.28;72.72
74960;BME280;63518;49.572;1.106;2023-04-22T08:17:19;98498.59;;;9.62;73.12
74960;BME280;63518;49.572;1.106;2023-04-22T08:19:47;98488.63;;;9.53;73.10
74960;BME280;63518;49.572;1.106;2023-04-22T08:22:15;98502.66;;;9.79;70.20
74960;BME280;63518;49.572;1.106;2023-04-22T08:24:44;98500.56;;;9.48;72.45
74960;BME280;63518;49.572;1.106;2023-04-22T08:27:12;98493.91;;;9.63;70.54
74960;BME280;63518;49.572;1.106;2023-04-22T08:29:39;98499.41;;;9.63;71.50
74960;BME280;63518;49.572;1.106;2023-04-22T08:32:10;98502.69;;;9.65;73.00
74960;BME280;63518;49.572;1.106;2023-04-22T08:34:37;98483.44;;;9.65;70.59
74960;BME280;63518;49.572;1.106;2023-04-22T08:37:07;98506.19;;;10.07;71.05
74960;BME280;63518;49.572;1.106;2023-04-22T08:39:34;98504.59;;;9.92;71.11
74960;BME280;63518;49.572;1.106;2023-04-22T08:42:02;98497.56;;;10.22;70.26
74960;BME280;63518;49.572;1.106;2023-04-22T08:44:29;98488.34;;;10.40;70.73
74960;BME280;63518;49.572;1.106;2023-04-22T08:46:57;98484.41;;;10.55;69.72
74960;BME280;63518;49.572;1.106;2023-04-22T08:49:28;98488.13;;;11.04;69.47
74960;BME280;63518;49.572;1.106;2023-04-22T08:51:55;98510.84;;;10.78;69.81
74960;BME280;63518;49.572;1.106;2023-04-22T08:54:22;98504.25;;;11.19;68.73
74960;BME280;63518;49.572;1.106;2023-04-22T08:56:50;98485.53;;;11.87;67.92
74960;BME280;63518;49.572;1.106;2023-04-22T08:59:17;98497.72;;;11.38;68.36
74960;BME280;63518;49.572;1.106;2023-04-22T09:01:48;98488.28;;;11.78;68.61
74960;BME280;63518;49.572;1.106;2023-04-22T09:04:15;98471.56;;;11.83;68.34
74960;BME280;63518;49.572;1.106;2023-04-22T09:06:44;98479.22;;;12.12;67.60
74960;BME280;63518;49.572;1.106;2023-04-22T09:09:11;98496.13;;;12.37;68.98
74960;BME280;63518;49.572;1.106;2023-04-22T09:11:38;98503.28;;;12.29;68.63
74960;BME280;63518;49.572;1.106;2023-04-22T09:14:05;98485.97;;;13.10;67.81
74960;BME280;63518;49.572;1.106;2023-04-22T09:16:32;98493.66;;;13.05;67.15
74960;BME280;63518;49.572;1.106;2023-04-22T09:22:28;98475.13;;;13.43;65.79
74960;BME280;63518;49.572;1.106;2023-04-22T09:25:23;98490.88;;;13.81;65.10
74960;BME280;63518;49.572;1.106;2023-04-22T09:27:53;98513.94;;;13.94;63.83
74960;BME280;63518;49.572;1.106;2023-04-22T09:30:25;98501.84;;;14.28;64.07
74960;BME280;63518;49.572;1.106;2023-04-22T09:32:54;98449.25;;;14.19;63.22
74960;BME280;63518;49.572;1.106;2023-04-22T09:35:36;98417.56;;;12.81;65.44
74960;BME280;63518;49.572;1.106;2023-04-22T09:38:10;98475.41;;;14.84;61.45
74960;BME280;63518;49.572;1.106;2023-04-22T09:40:56;98494.09;;;15.53;57.21
74960;BME280;63518;49.572;1.106;2023-04-22T09:43:23;98501.84;;;15.97;56.85
74960;BME280;63518;49.572;1.106;2023-04-22T09:49:37;98461.53;;;16.03;56.92
74960;BME280;63518;49.572;1.106;2023-04-22T09:52:05;98491.75;;;16.29;55.78
74960;BME280;63518;49.572;1.106;2023-04-22T09:54:32;98508.44;;;16.69;55.29
74960;BME280;63518;49.572;1.106;2023-04-22T09:56:59;98509.06;;;16.50;55.58
74960;BME280;63518;49.572;1.106;2023-04-22T09:59:27;98521.69;;;17.16;54.31
74960;BME280;63518;49.572;1.106;2023-04-22T10:01:57;98521.66;;;17.60;54.10
74960;BME280;63518;49.572;1.106;2023-04-22T10:04:26;98515.19;;;17.71;53.44
74960;BME280;63518;49.572;1.106;2023-04-22T10:06:54;98514.00;;;17.88;51.90
74960;BME280;63518;49.572;1.106;2023-04-22T10:09:23;98531.53;;;18.20;52.26
74960;BME280;63518;49.572;1.106;2023-04-22T10:11:52;98537.97;;;18.60;52.42
74960;BME280;63518;49.572;1.106;2023-04-22T10:14:20;98528.56;;;18.48;50.81
74960;BME280;63518;49.572;1.106;2023-04-22T10:16:49;98541.97;;;17.92;51.65
74960;BME280;63518;49.572;1.106;2023-04-22T10:19:22;98546.38;;;17.77;48.50
74960;BME280;63518;49.572;1.106;2023-04-22T10:21:55;98548.09;;;18.48;50.30
74960;BME280;63518;49.572;1.106;2023-04-22T10:24:26;98549.31;;;17.53;44.12
74960;BME280;63518;49.572;1.106;2023-04-22T10:26:55;98557.22;;;17.07;54.79
74960;BME280;63518;49.572;1.106;2023-04-22T10:29:25;98550.84;;;17.34;53.49
74960;BME280;63518;49.572;1.106;2023-04-22T10:34:20;98555.16;;;19.81;47.79
74960;BME280;63518;49.572;1.106;2023-04-22T10:36:53;98554.03;;;19.63;47.70
74960;BME280;63518;49.572;1.106;2023-04-22T10:39:22;98552.19;;;19.93;47.49
74960;BME280;63518;49.572;1.106;2023-04-22T10:47:24;98559.88;;;19.35;46.95
74960;BME280;63518;49.572;1.106;2023-04-22T10:52:38;98567.06;;;18.08;48.49
74960;BME280;63518;49.572;1.106;2023-04-22T10:55:06;98562.38;;;16.92;45.15
74960;BME280;63518;49.572;1.106;2023-04-22T10:57:41;98562.22;;;19.52;45.93
74960;BME280;63518;49.572;1.106;2023-04-22T11:00:29;98562.34;;;20.05;45.06
74960;BME280;63518;49.572;1.106;2023-04-22T11:03:13;98570.00;;;19.01;46.60
74960;BME280;63518;49.572;1.106;2023-04-22T11:05:41;98569.25;;;16.06;48.59
74960;BME280;63518;49.572;1.106;2023-04-22T11:08:18;98571.94;;;19.81;45.60
74960;BME280;63518;49.572;1.106;2023-04-22T11:10:50;98579.22;;;19.86;42.98
74960;BME280;63518;49.572;1.106;2023-04-22T11:13:19;98562.78;;;19.61;44.51
74960;BME280;63518;49.572;1.106;2023-04-22T11:15:49;98570.25;;;20.22;43.70
74960;BME280;63518;49.572;1.106;2023-04-22T11:18:21;98577.78;;;19.95;44.82
74960;BME280;63518;49.572;1.106;2023-04-22T11:20:50;98566.72;;;21.12;41.35
74960;BME280;63518;49.572;1.106;2023-04-22T11:23:20;98572.44;;;19.87;44.50
74960;BME280;63518;49.572;1.106;2023-04-22T11:25:53;98560.97;;;20.18;42.90
74960;BME280;63518;49.572;1.106;2023-04-22T11:28:20;98571.75;;;19.51;40.43
74960;BME280;63518;49.572;1.106;2023-04-22T11:30:48;98571.66;;;20.92;41.62
74960;BME280;63518;49.572;1.106;2023-04-22T11:33:16;98573.00;;;16.62;45.74
74960;BME280;63518;49.572;1.106;2023-04-22T11:35:42;98580.09;;;18.90;39.55
74960;BME280;63518;49.572;1.106;2023-04-22T11:38:09;98582.09;;;18.89;46.13
74960;BME280;63518;49.572;1.106;2023-04-22T11:40:41;98570.84;;;20.92;42.99
74960;BME280;63518;49.572;1.106;2023-04-22T11:43:12;98572.50;;;19.67;43.11
74960;BME280;63518;49.572;1.106;2023-04-22T11:45:39;98577.06;;;19.14;42.60
74960;BME280;63518;49.572;1.106;2023-04-22T11:48:08;98583.81;;;19.98;42.22
74960;BME280;63518;49.572;1.106;2023-04-22T11:50:37;98568.22;;;20.72;41.74
74960;BME280;63518;49.572;1.106;2023-04-22T11:53:12;98579.25;;;20.92;38.75
74960;BME280;63518;49.572;1.106;2023-04-22T11:55:40;98584.84;;;18.70;39.74
74960;BME280;63518;49.572;1.106;2023-04-22T11:58:13;98584.75;;;18.31;40.65
74960;BME280;63518;49.572;1.106;2023-04-22T12:00:51;98585.00;;;19.96;43.92
74960;BME280;63518;49.572;1.106;2023-04-22T12:03:25;98600.66;;;21.07;41.58
74960;BME280;63518;49.572;1.106;2023-04-22T12:05:56;98596.63;;;21.04;41.56
74960;BME280;63518;49.572;1.106;2023-04-22T12:08:24;98598.44;;;21.53;40.78
74960;BME280;63518;49.572;1.106;2023-04-22T12:10:53;98597.81;;;21.71;40.75
74960;BME280;63518;49.572;1.106;2023-04-22T12:13:24;98591.41;;;22.62;37.99
74960;BME280;63518;49.572;1.106;2023-04-22T12:15:56;98589.63;;;22.98;38.66
74960;BME280;63518;49.572;1.106;2023-04-22T12:18:40;98598.78;;;23.86;35.74
74960;BME280;63518;49.572;1.106;2023-04-22T12:21:11;98600.81;;;24.07;35.76
74960;BME280;63518;49.572;1.106;2023-04-22T12:23:41;98593.06;;;22.70;34.22
74960;BME280;63518;49.572;1.106;2023-04-22T12:26:12;98612.94;;;22.44;32.11
74960;BME280;63518;49.572;1.106;2023-04-22T12:28:40;98606.22;;;21.71;36.13
74960;BME280;63518;49.572;1.106;2023-04-22T12:31:08;98608.56;;;20.98;37.34
74960;BME280;63518;49.572;1.106;2023-04-22T12:33:36;98623.03;;;21.03;38.20
74960;BME280;63518;49.572;1.106;2023-04-22T12:36:04;98618.50;;;20.65;40.70
74960;BME280;63518;49.572;1.106;2023-04-22T12:38:32;98622.53;;;19.34;40.42
74960;BME280;63518;49.572;1.106;2023-04-22T12:40:59;98617.63;;;20.12;40.46
74960;BME280;63518;49.572;1.106;2023-04-22T12:43:26;98609.00;;;19.55;39.51
74960;BME280;63518;49.572;1.106;2023-04-22T12:45:52;98619.47;;;19.81;41.94
74960;BME280;63518;49.572;1.106;2023-04-22T12:48:19;98613.47;;;20.02;42.40
74960;BME280;63518;49.572;1.106;2023-04-22T12:50:46;98627.41;;;18.98;42.77
74960;BME280;63518;49.572;1.106;2023-04-22T12:53:13;98631.41;;;17.27;42.53
74960;BME280;63518;49.572;1.106;2023-04-22T12:55:41;98618.94;;;18.79;42.34
74960;BME280;63518;49.572;1.106;2023-04-22T12:58:11;98636.47;;;19.73;42.10
74960;BME280;63518;49.572;1.106;2023-04-22T13:00:38;98636.72;;;19.25;42.34
74960;BME280;63518;49.572;1.106;2023-04-22T13:03:05;98632.75;;;19.07;41.90
74960;BME280;63518;49.572;1.106;2023-04-22T13:05:44;98627.69;;;19.32;39.83
74960;BME280;63518;49.572;1.106;2023-04-22T13:08:11;98643.03;;;19.61;42.62
74960;BME280;63518;49.572;1.106;2023-04-22T13:10:38;98639.44;;;19.41;41.73
74960;BME280;63518;49.572;1.106;2023-04-22T13:13:05;98626.84;;;18.93;44.37
74960;BME280;63518;49.572;1.106;2023-04-22T13:15:37;98603.50;;;19.01;43.72
74960;BME280;63518;49.572;1.106;2023-04-22T13:18:04;98635.53;;;20.07;40.91
74960;BME280;63518;49.572;1.106;2023-04-22T13:20:32;98637.59;;;19.49;43.14
74960;BME280;63518;49.572;1.106;2023-04-22T13:22:59;98639.59;;;19.48;41.42
74960;BME280;63518;49.572;1.106;2023-04-22T13:25:28;98639.75;;;19.17;43.88
74960;BME280;63518;49.572;1.106;2023-04-22T13:27:57;98636.44;;;18.76;42.45
74960;BME280;63518;49.572;1.106;2023-04-22T13:30:23;98632.41;;;18.73;43.98
74960;BME280;63518;49.572;1.106;2023-04-22T13:32:51;98632.22;;;18.66;44.42